Time;durP1;ratioP1;P1;durP2;ratioP2;P2;SDS_P1;SDS_P2;PMS_P1;PMS_P2;Temp;Humidity;BMP_temperature;BMP_pressure;BME280_temperature;BME280_humidity;BME280_pressure;Samples;Min_cycle;Max_cycle;Signal;HPM_P1;HPM_P2
2023/12/10 00:02:18;;;;;;;28.08;4.55;;;;;;;10.72;80.75;99497.34;5058436;28;20041;-67
2023/12/10 00:04:46;;;;;;;27.75;5.45;;;;;;;10.67;80.59;99499.25;5021953;28;20045;-67
2023/12/10 00:07:12;;;;;;;25.23;4.60;;;;;;;10.67;79.60;99481.16;5027789;28;20342;-67
2023/12/10 00:09:38;;;;;;;30.83;5.15;;;;;;;10.60;80.46;99495.13;5045253;28;20033;-67
2023/12/10 00:12:04;;;;;;;23.73;5.47;;;;;;;10.65;79.48;99492.44;5026318;28;20037;-67
2023/12/10 00:14:30;;;;;;;31.17;5.53;;;;;;;10.52;80.66;99498.81;5025764;28;20098;-67
2023/12/10 00:16:56;;;;;;;24.58;5.35;;;;;;;10.45;80.62;99505.03;5028721;28;20045;-66
2023/12/10 00:19:22;;;;;;;30.92;5.10;;;;;;;10.57;78.86;99479.72;5028343;28;20550;-67
2023/12/10 00:21:48;;;;;;;36.55;5.68;;;;;;;10.58;79.82;99496.06;5024672;28;20045;-66
2023/12/10 00:24:13;;;;;;;26.20;5.38;;;;;;;10.55;79.89;99496.16;5058095;28;20059;-68
2023/12/10 00:26:39;;;;;;;26.27;5.43;;;;;;;10.56;79.95;99506.47;5026681;28;20037;-67
2023/12/10 00:29:05;;;;;;;35.45;5.47;;;;;;;10.56;79.81;99503.03;5027071;28;20512;-67
2023/12/10 00:31:31;;;;;;;21.77;5.40;;;;;;;10.50;80.86;99522.13;5057937;28;20033;-68
2023/12/10 00:33:57;;;;;;;24.17;5.20;;;;;;;10.58;80.14;99511.56;5019977;28;20049;-67
2023/12/10 00:36:23;;;;;;;23.23;5.18;;;;;;;10.54;80.69;99526.31;5028293;28;20041;-68
2023/12/10 00:38:49;;;;;;;28.35;6.05;;;;;;;10.59;79.03;99521.03;5024233;28;20106;-68
2023/12/10 00:41:15;;;;;;;28.30;6.13;;;;;;;10.57;80.37;99539.13;4994006;28;20512;-67
2023/12/10 00:43:42;;;;;;;23.00;4.75;;;;;;;10.69;78.62;99525.03;5026077;28;20037;-67
2023/12/10 00:46:08;;;;;;;37.42;5.38;;;;;;;10.73;77.96;99508.53;5027934;28;20036;-68
2023/12/10 00:48:36;;;;;;;32.47;5.32;;;;;;;10.69;79.53;99527.59;5027421;28;20061;-67
2023/12/10 00:51:02;;;;;;;26.13;5.57;;;;;;;10.80;79.26;99544.50;5026710;28;20029;-68
2023/12/10 00:53:28;;;;;;;31.15;5.10;;;;;;;10.77;79.22;99541.19;5024986;28;20107;-67
2023/12/10 00:55:54;;;;;;;27.42;5.25;;;;;;;10.66;80.72;99567.31;5027514;28;20025;-67
2023/12/10 00:58:20;;;;;;;28.48;5.85;;;;;;;10.67;79.88;99544.91;5054014;28;20372;-67
2023/12/10 01:00:46;;;;;;;34.45;8.18;;;;;;;10.74;79.28;99539.50;5027439;28;20129;-67
2023/12/10 01:03:12;;;;;;;29.60;5.18;;;;;;;10.69;79.25;99546.53;5027583;28;20040;-67
2023/12/10 01:05:38;;;;;;;30.00;5.90;;;;;;;10.66;80.08;99559.56;5029717;28;20733;-67
2023/12/10 01:08:04;;;;;;;27.55;5.35;;;;;;;10.77;78.73;99536.00;5041051;28;20041;-67
2023/12/10 01:10:33;;;;;;;23.90;5.10;;;;;;;10.78;78.56;99540.25;5019841;28;20022;-67
2023/12/10 01:12:59;;;;;;;25.92;6.05;;;;;;;10.76;79.34;99549.81;5057594;28;20037;-68
2023/12/10 01:15:31;;;;;;;35.15;5.07;;;;;;;10.70;79.50;99566.34;5030334;28;20529;-67
2023/12/10 01:18:01;;;;;;;29.27;5.32;;;;;;;10.71;79.21;99568.00;5027245;28;20056;-67
2023/12/10 01:20:31;;;;;;;22.90;5.60;;;;;;;10.74;78.56;99551.59;5059222;28;20516;-67
2023/12/10 01:22:57;;;;;;;25.75;5.20;;;;;;;10.68;78.71;99559.53;5031243;28;20025;-67
2023/12/10 01:25:27;;;;;;;28.20;4.72;;;;;;;10.63;79.60;99569.13;5065361;28;20480;-68
2023/12/10 01:27:53;;;;;;;25.70;5.10;;;;;;;10.67;78.08;99558.69;5022474;28;20071;-66
2023/12/10 01:30:23;;;;;;;23.27;5.43;;;;;;;10.68;78.12;99560.34;5026077;28;20654;-67
2023/12/10 01:32:53;;;;;;;26.95;6.30;;;;;;;10.73;77.24;99555.91;5029140;28;20128;-67
2023/12/10 01:35:19;;;;;;;22.65;4.18;;;;;;;10.70;78.32;99573.25;5031635;28;20037;-66
2023/12/10 01:37:45;;;;;;;20.83;5.53;;;;;;;10.67;77.46;99586.25;5042727;28;20095;-67
2023/12/10 01:40:12;;;;;;;26.50;4.82;;;;;;;10.70;77.20;99568.06;5008308;28;20030;-66
2023/12/10 01:42:38;;;;;;;30.05;5.70;;;;;;;10.67;78.04;99592.28;5057156;28;20092;-66
2023/12/10 01:45:05;;;;;;;24.98;5.35;;;;;;;10.70;77.45;99583.56;5021430;28;20467;-67
2023/12/10 01:47:35;;;;;;;26.27;6.10;;;;;;;10.65;77.50;99590.63;5054628;28;20420;-67
2023/12/10 01:50:05;;;;;;;31.65;5.70;;;;;;;10.71;76.88;99568.00;5023894;28;20037;-67
2023/12/10 01:52:35;;;;;;;24.85;5.15;;;;;;;10.71;76.72;99568.00;5025140;28;20065;-67
2023/12/10 01:55:03;;;;;;;28.25;6.40;;;;;;;10.68;77.15;99582.78;5027639;28;20139;-67
2023/12/10 01:57:32;;;;;;;31.85;5.32;;;;;;;10.66;77.43;99594.88;5025939;28;20115;-67
2023/12/10 01:59:59;;;;;;;27.17;5.10;;;;;;;10.55;77.96;99613.28;5021977;28;20648;-66
2023/12/10 02:02:26;;;;;;;22.13;5.10;;;;;;;10.63;77.12;99597.53;5022212;28;21618;-67
2023/12/10 02:04:54;;;;;;;17.58;3.80;;;;;;;10.63;77.10;99602.72;5023677;28;20117;-67
2023/12/10 02:07:23;;;;;;;27.90;4.90;;;;;;;10.71;75.72;99574.94;5057055;28;20028;-67
2023/12/10 02:09:50;;;;;;;19.40;4.13;;;;;;;10.65;76.72;99600.97;5056083;28;20038;-67
2023/12/10 02:12:18;;;;;;;19.23;3.92;;;;;;;10.62;77.04;99616.53;5026617;28;20038;-67
2023/12/10 02:14:44;;;;;;;27.05;5.50;;;;;;;10.69;76.07;99602.53;5026866;28;20579;-67
2023/12/10 02:17:10;;;;;;;25.02;4.30;;;;;;;10.71;75.45;99598.22;5023607;28;20125;-67
2023/12/10 02:19:36;;;;;;;18.38;4.25;;;;;;;10.69;76.05;99618.06;5037018;28;20117;-67
2023/12/10 02:22:03;;;;;;;25.45;4.68;;;;;;;10.66;76.44;99619.00;5029097;28;20111;-67
2023/12/10 02:24:59;;;;;;;21.95;5.00;;;;;;;10.68;76.16;99624.97;5055484;28;20033;-66
2023/12/10 02:27:25;;;;;;;23.73;4.88;;;;;;;10.69;75.56;99620.63;5004469;28;20443;-67
2023/12/10 02:29:51;;;;;;;27.30;4.88;;;;;;;10.70;75.67;99617.19;5039067;28;20038;-67
2023/12/10 02:32:17;;;;;;;16.23;3.90;;;;;;;10.73;75.43;99614.50;5008686;28;20025;-67
2023/12/10 02:34:43;;;;;;;22.42;3.95;;;;;;;10.73;75.10;99609.34;5018548;28;20095;-67
2023/12/10 02:37:08;;;;;;;21.10;4.22;;;;;;;10.67;75.75;99640.50;5040113;28;20115;-67
2023/12/10 02:39:34;;;;;;;25.15;4.28;;;;;;;10.69;76.20;99644.75;5022816;28;20037;-67
2023/12/10 02:41:59;;;;;;;19.17;4.38;;;;;;;10.68;76.06;99640.47;5022336;28;20537;-67
2023/12/10 02:44:25;;;;;;;26.95;4.50;;;;;;;10.64;75.70;99630.25;5022504;28;20067;-67
2023/12/10 02:46:51;;;;;;;22.15;3.80;;;;;;;10.63;75.99;99634.56;5039769;28;20091;-67
2023/12/10 02:49:16;;;;;;;15.70;4.07;;;;;;;10.56;76.70;99660.63;5020052;28;20033;-67
2023/12/10 02:51:42;;;;;;;21.13;4.75;;;;;;;10.54;76.01;99646.88;5051160;28;20532;-68
2023/12/10 02:54:08;;;;;;;23.63;4.35;;;;;;;10.46;77.97;99670.34;5024901;28;20081;-67
2023/12/10 02:56:34;;;;;;;17.63;3.88;;;;;;;10.35;78.54;99711.09;5025956;28;20030;-67
2023/12/10 02:59:00;;;;;;;21.52;4.78;;;;;;;10.27;79.67;99714.75;5025729;28;20041;-67
2023/12/10 03:01:29;;;;;;;24.17;4.53;;;;;;;10.26;79.08;99702.72;5030053;28;20068;-67
2023/12/10 03:03:55;;;;;;;27.50;5.22;;;;;;;10.34;77.09;99667.22;5025333;28;20085;-67
2023/12/10 03:06:20;;;;;;;19.70;3.58;;;;;;;10.28;78.77;99701.78;5007132;28;20062;-66
2023/12/10 03:08:46;;;;;;;23.42;3.55;;;;;;;10.31;76.33;99668.16;5021601;28;20045;-66
2023/12/10 03:11:12;;;;;;;21.58;3.90;;;;;;;10.24;77.29;99680.34;5019911;28;20038;-67
2023/12/10 03:13:37;;;;;;;18.33;4.93;;;;;;;10.28;76.61;99673.38;5054561;28;20568;-67
2023/12/10 03:16:03;;;;;;;21.88;5.40;;;;;;;10.23;77.08;99680.41;5056946;28;20543;-67
2023/12/10 03:18:30;;;;;;;22.48;4.35;;;;;;;10.21;76.87;99685.59;5022940;28;20072;-67
2023/12/10 03:20:55;;;;;;;19.05;3.85;;;;;;;10.19;77.07;99689.97;5017377;28;20041;-67
2023/12/10 03:23:21;;;;;;;20.30;3.10;;;;;;;10.28;76.39;99669.94;5024854;28;20052;-68
2023/12/10 03:25:46;;;;;;;16.33;3.63;;;;;;;10.32;75.49;99659.53;5019964;28;20623;-66
2023/12/10 03:28:12;;;;;;;23.50;4.07;;;;;;;10.34;75.22;99664.63;5056395;28;20038;-66
2023/12/10 03:30:38;;;;;;;16.88;3.25;;;;;;;10.30;76.00;99676.78;5017066;28;20026;-66
2023/12/10 03:33:04;;;;;;;18.98;4.03;;;;;;;10.28;76.36;99696.63;5018732;28;20120;-67
2023/12/10 03:35:29;;;;;;;19.52;3.70;;;;;;;10.26;77.19;99713.06;5024222;28;20054;-67
2023/12/10 03:37:55;;;;;;;26.85;4.30;;;;;;;10.20;77.61;99714.91;5054086;28;20120;-67
2023/12/10 03:40:21;;;;;;;23.33;4.55;;;;;;;10.20;77.38;99730.41;5056164;28;20480;-67
2023/12/10 03:42:46;;;;;;;25.77;4.65;;;;;;;10.13;78.81;99761.53;5015775;28;20029;-67
2023/12/10 03:45:12;;;;;;;19.75;4.47;;;;;;;10.12;78.52;99740.03;5033813;28;20041;-67
2023/12/10 03:47:38;;;;;;;25.02;4.28;;;;;;;10.18;78.26;99747.63;5004538;28;20057;-66
2023/12/10 03:50:04;;;;;;;21.92;3.80;;;;;;;10.22;78.64;99738.94;5004173;28;20037;-67
2023/12/10 03:52:29;;;;;;;14.57;4.05;;;;;;;10.23;77.24;99729.47;5019915;28;20044;-67
2023/12/10 03:54:55;;;;;;;19.88;4.20;;;;;;;10.17;79.65;99766.63;5016025;28;20034;-66
2023/12/10 03:57:21;;;;;;;12.68;3.38;;;;;;;10.26;77.32;99726.81;5058035;28;20092;-67
2023/12/10 03:59:47;;;;;;;18.30;3.45;;;;;;;10.31;76.97;99726.69;5023977;28;20528;-67
2023/12/10 04:02:13;;;;;;;25.08;4.22;;;;;;;10.33;76.82;99740.44;5053459;28;20040;-67
2023/12/10 04:04:38;;;;;;;22.27;4.30;;;;;;;10.33;77.76;99735.28;5022907;28;20141;-67
2023/12/10 04:07:04;;;;;;;25.08;4.13;;;;;;;10.30;77.12;99740.50;5023212;28;20038;-66
2023/12/10 04:09:30;;;;;;;15.38;3.45;;;;;;;10.31;77.12;99744.78;5024204;28;20045;-66
2023/12/10 04:11:56;;;;;;;25.48;4.45;;;;;;;10.34;76.50;99742.13;5055889;28;20064;-66
2023/12/10 04:14:22;;;;;;;24.27;4.88;;;;;;;10.33;77.45;99750.78;5025773;28;20500;-67
2023/12/10 04:16:48;;;;;;;24.77;4.82;;;;;;;10.33;77.54;99776.59;5026151;28;20040;-67
2023/12/10 04:19:14;;;;;;;23.85;4.82;;;;;;;10.39;76.64;99751.44;5022205;28;20042;-67
2023/12/10 04:21:40;;;;;;;24.85;3.83;;;;;;;10.37;76.67;99750.66;5025065;28;20067;-67
2023/12/10 04:24:06;;;;;;;18.77;4.13;;;;;;;10.44;76.60;99731.56;5020863;28;20038;-67
2023/12/10 04:26:32;;;;;;;24.75;4.05;;;;;;;10.35;77.63;99773.09;5025973;28;20057;-67
2023/12/10 04:28:58;;;;;;;21.40;5.05;;;;;;;10.35;77.10;99767.94;5023728;28;20542;-67
2023/12/10 04:31:23;;;;;;;20.95;3.38;;;;;;;10.35;76.84;99759.31;4995356;28;20508;-67
2023/12/10 04:33:50;;;;;;;25.73;4.30;;;;;;;10.32;77.49;99780.06;5023494;28;20045;-67
2023/12/10 04:36:15;;;;;;;37.72;6.68;;;;;;;10.30;77.53;99774.91;5057002;28;20515;-67
2023/12/10 04:38:42;;;;;;;23.00;3.70;;;;;;;10.23;77.69;99792.31;5027691;28;20038;-66
2023/12/10 04:41:08;;;;;;;24.55;4.72;;;;;;;10.27;78.44;99793.06;5041034;28;20041;-66
2023/12/10 04:43:33;;;;;;;24.67;4.20;;;;;;;10.30;77.26;99776.69;5026686;28;20025;-67
2023/12/10 04:45:59;;;;;;;28.33;4.68;;;;;;;10.26;77.07;99770.72;5023520;28;20408;-67
2023/12/10 04:48:25;;;;;;;21.95;5.03;;;;;;;10.29;77.39;99775.81;5030302;28;20029;-66
2023/12/10 04:50:51;;;;;;;23.52;4.57;;;;;;;10.38;75.78;99752.34;5026559;28;20040;-66
2023/12/10 04:53:17;;;;;;;26.75;4.65;;;;;;;10.40;75.54;99732.50;5026535;28;20559;-67
2023/12/10 04:55:43;;;;;;;19.25;4.47;;;;;;;10.45;74.93;99711.69;5043109;28;20052;-67
2023/12/10 04:58:09;;;;;;;23.85;4.85;;;;;;;10.50;74.32;99722.78;5059851;28;20061;-67
2023/12/10 05:00:35;;;;;;;21.25;4.05;;;;;;;10.47;74.84;99725.44;5020923;28;20038;-67
2023/12/10 05:03:00;;;;;;;24.85;5.85;;;;;;;10.57;72.85;99682.97;5024104;28;20496;-67
2023/12/10 05:05:26;;;;;;;17.90;3.78;;;;;;;10.66;72.31;99672.41;5064054;28;20045;-67
2023/12/10 05:07:52;;;;;;;22.95;4.30;;;;;;;10.79;71.25;99673.78;5024893;28;20044;-67
2023/12/10 05:10:17;;;;;;;18.00;3.72;;;;;;;10.79;72.08;99684.13;5023877;28;20026;-68
2023/12/10 05:12:43;;;;;;;23.77;3.85;;;;;;;10.72;72.10;99703.25;5055284;28;20124;-67
2023/12/10 05:15:09;;;;;;;28.05;4.15;;;;;;;10.62;73.07;99723.31;5059428;28;20042;-68
2023/12/10 05:17:35;;;;;;;25.63;4.45;;;;;;;10.62;72.59;99719.91;5024619;28;20059;-68
2023/12/10 05:20:00;;;;;;;19.50;4.18;;;;;;;10.71;71.35;99693.84;5021883;28;20046;-68
2023/12/10 05:22:26;;;;;;;22.73;4.75;;;;;;;10.79;70.64;99690.16;5028452;28;20034;-67
2023/12/10 05:24:51;;;;;;;28.17;4.90;;;;;;;10.74;71.83;99723.00;5041260;28;20588;-67
2023/12/10 05:27:17;;;;;;;19.70;5.03;;;;;;;10.77;71.42;99699.66;5022944;28;20045;-67
2023/12/10 05:29:43;;;;;;;26.30;4.82;;;;;;;10.74;72.04;99728.19;5053471;28;20116;-66
2023/12/10 05:32:08;;;;;;;16.60;3.53;;;;;;;10.65;72.05;99733.56;5025472;28;20061;-68
2023/12/10 05:34:34;;;;;;;20.45;4.10;;;;;;;10.71;70.23;99704.16;5025301;28;20087;-67
2023/12/10 05:37:00;;;;;;;16.95;3.30;;;;;;;10.80;69.98;99703.94;5023100;28;20097;-67
2023/12/10 05:39:26;;;;;;;18.92;3.95;;;;;;;10.74;70.89;99740.28;5025384;28;20457;-67
2023/12/10 05:41:51;;;;;;;19.05;3.35;;;;;;;10.77;70.10;99724.69;5054336;28;20423;-67
2023/12/10 05:44:17;;;;;;;24.40;3.80;;;;;;;10.82;68.90;99725.41;5022474;28;20042;-67
2023/12/10 05:46:42;;;;;;;19.15;3.63;;;;;;;10.76;69.56;99752.28;5024171;28;20055;-67
2023/12/10 05:49:08;;;;;;;19.38;3.65;;;;;;;10.73;69.69;99751.50;5025208;28;20048;-67
2023/12/10 05:51:34;;;;;;;23.25;3.83;;;;;;;10.83;68.50;99734.03;5023686;28;20448;-67
2023/12/10 05:53:59;;;;;;;22.05;3.88;;;;;;;10.78;69.30;99752.22;5054929;28;20692;-68
2023/12/10 05:56:25;;;;;;;21.10;3.72;;;;;;;10.80;70.54;99777.13;5040453;28;20033;-67
2023/12/10 05:58:51;;;;;;;18.90;3.55;;;;;;;10.70;70.41;99786.03;5024963;28;20120;-67
2023/12/10 06:01:17;;;;;;;22.13;4.03;;;;;;;10.84;69.47;99762.41;5022062;28;20033;-67
2023/12/10 06:03:42;;;;;;;21.15;3.92;;;;;;;10.78;69.91;99767.72;5024465;28;20057;-67
2023/12/10 06:06:08;;;;;;;18.67;4.28;;;;;;;10.90;68.98;99770.00;5026448;28;20053;-67
2023/12/10 06:08:34;;;;;;;22.70;4.40;;;;;;;10.80;70.19;99797.81;5008225;28;20542;-67
2023/12/10 06:10:59;;;;;;;21.13;4.63;;;;;;;10.77;70.65;99815.16;5039545;28;20037;-67
2023/12/10 06:13:26;;;;;;;20.42;3.45;;;;;;;10.68;70.97;99829.13;5028061;28;20025;-68
2023/12/10 06:15:57;;;;;;;20.10;3.72;;;;;;;10.67;71.40;99842.94;5028030;28;20080;-67
2023/12/10 06:18:23;;;;;;;19.48;3.70;;;;;;;10.78;70.81;99835.78;5026771;28;20084;-68
2023/12/10 06:20:49;;;;;;;15.07;3.40;;;;;;;10.80;70.12;99836.59;5057803;28;20489;-67
2023/12/10 06:23:14;;;;;;;23.30;4.45;;;;;;;10.78;70.83;99843.53;5037920;28;20049;-67
2023/12/10 06:25:40;;;;;;;24.33;4.63;;;;;;;10.78;70.68;99863.38;5040494;28;20030;-67
2023/12/10 06:28:06;;;;;;;16.85;3.50;;;;;;;10.85;69.95;99828.72;5040274;28;20033;-68
2023/12/10 06:30:32;;;;;;;17.30;3.45;;;;;;;10.87;68.67;99811.44;5056460;28;20130;-68
2023/12/10 06:32:58;;;;;;;16.60;3.33;;;;;;;10.80;68.98;99805.56;5025454;28;20048;-68
2023/12/10 06:35:24;;;;;;;20.63;3.75;;;;;;;10.82;69.06;99815.88;5024795;28;20033;-68
2023/12/10 06:37:50;;;;;;;21.35;4.03;;;;;;;10.78;69.65;99843.53;5039805;28;20068;-68
2023/12/10 06:40:16;;;;;;;24.83;4.22;;;;;;;10.72;70.61;99871.25;5026231;28;20034;-67
2023/12/10 06:42:42;;;;;;;24.45;4.88;;;;;;;10.76;70.56;99868.59;5021847;28;20650;-67
2023/12/10 06:45:08;;;;;;;21.60;3.85;;;;;;;10.69;71.79;99905.78;5019971;28;20087;-67
2023/12/10 06:47:34;;;;;;;20.75;4.85;;;;;;;10.68;71.99;99911.00;5023778;28;20045;-67
2023/12/10 06:50:00;;;;;;;18.73;3.55;;;;;;;10.65;72.80;99905.91;5037654;28;20045;-67
2023/12/10 06:52:25;;;;;;;19.60;4.32;;;;;;;10.72;71.00;99887.63;5039922;28;20212;-67
2023/12/10 06:54:51;;;;;;;19.42;4.10;;;;;;;10.76;70.78;99886.69;5022003;28;20132;-67
2023/12/10 06:57:18;;;;;;;22.15;3.92;;;;;;;10.75;70.73;99890.13;5020703;28;20126;-67
2023/12/10 06:59:43;;;;;;;25.77;4.60;;;;;;;10.73;70.39;99889.34;5009831;28;20053;-67
2023/12/10 07:02:09;;;;;;;26.83;6.80;;;;;;;10.79;70.38;99896.09;5039165;28;20472;-67
2023/12/10 07:04:35;;;;;;;21.23;3.85;;;;;;;10.74;71.28;99910.88;5027065;28;20465;-66
2023/12/10 07:07:01;;;;;;;22.08;3.28;;;;;;;10.74;71.55;99914.28;5038642;28;20077;-67
2023/12/10 07:09:27;;;;;;;29.13;4.78;;;;;;;10.73;71.89;99938.44;5023206;28;20041;-67
2023/12/10 07:11:52;;;;;;;26.33;4.55;;;;;;;10.73;72.25;99937.59;5018248;28;20065;-66
2023/12/10 07:14:18;;;;;;;20.10;4.47;;;;;;;10.72;72.52;99947.06;5024347;28;20037;-67
2023/12/10 07:16:43;;;;;;;22.40;3.67;;;;;;;10.70;72.47;99963.50;5024844;28;20048;-67
2023/12/10 07:19:09;;;;;;;23.48;4.13;;;;;;;10.68;73.09;99967.84;5023642;28;20046;-67
2023/12/10 07:21:34;;;;;;;24.60;4.10;;;;;;;10.72;72.18;99954.81;5022170;28;20044;-68
2023/12/10 07:24:00;;;;;;;17.40;3.83;;;;;;;10.74;71.78;99931.53;5023037;28;20043;-66
2023/12/10 07:26:25;;;;;;;19.58;3.50;;;;;;;10.70;72.77;99971.25;5023226;28;20040;-66
2023/12/10 07:28:51;;;;;;;21.38;3.85;;;;;;;10.72;72.14;99953.97;5025081;28;20665;-66
2023/12/10 07:31:18;;;;;;;24.27;4.93;;;;;;;10.78;71.30;99954.69;5022128;28;20416;-66
2023/12/10 07:33:43;;;;;;;22.38;3.83;;;;;;;10.77;71.71;99970.25;5023756;28;20042;-67
2023/12/10 07:36:10;;;;;;;26.88;4.93;;;;;;;10.72;71.95;99996.19;5049382;28;20095;-67
2023/12/10 07:38:35;;;;;;;21.25;3.50;;;;;;;10.77;71.70;99985.75;5018813;28;20038;-66
2023/12/10 07:41:00;;;;;;;20.50;4.22;;;;;;;10.78;71.18;99985.72;5020348;28;20745;-67
2023/12/10 07:43:26;;;;;;;18.75;5.35;;;;;;;10.77;72.00;100001.25;5031907;28;20392;-65
2023/12/10 07:45:51;;;;;;;16.35;3.65;;;;;;;10.71;72.27;100007.38;5020234;28;20049;-66
2023/12/10 07:48:19;;;;;;;19.92;4.03;;;;;;;10.69;72.40;100022.09;5024472;28;20429;-65
2023/12/10 07:50:44;;;;;;;24.10;3.97;;;;;;;10.64;72.80;100034.25;5021066;28;20038;-67
2023/12/10 07:53:10;;;;;;;23.48;4.57;;;;;;;10.67;71.91;100026.44;5036103;28;20548;-67
2023/12/10 07:55:35;;;;;;;27.73;5.57;;;;;;;10.79;71.38;100002.94;5065722;28;20033;-66
2023/12/10 07:58:01;;;;;;;21.50;3.60;;;;;;;10.79;71.81;100012.41;5035009;28;20085;-66
2023/12/10 08:00:27;;;;;;;18.35;4.82;;;;;;;10.74;72.43;100030.59;5027875;28;20033;-66
2023/12/10 08:02:52;;;;;;;27.58;3.67;;;;;;;10.73;72.22;100031.50;5027750;28;20467;-67
2023/12/10 08:05:18;;;;;;;22.10;4.43;;;;;;;10.86;71.43;100024.31;5031217;28;20052;-66
2023/12/10 08:07:44;;;;;;;21.63;3.70;;;;;;;10.85;71.43;100039.88;5056741;28;20987;-66
2023/12/10 08:10:10;;;;;;;19.38;3.65;;;;;;;10.73;72.83;100072.84;5057752;28;20049;-66
2023/12/10 08:12:35;;;;;;;19.17;3.72;;;;;;;10.73;72.44;100059.94;5061606;28;20045;-66
2023/12/10 08:15:01;;;;;;;20.98;3.90;;;;;;;10.68;73.29;100095.31;5027185;28;20030;-66
2023/12/10 08:17:26;;;;;;;17.98;3.83;;;;;;;10.76;71.07;100040.91;5041902;28;20124;-66
2023/12/10 08:19:52;;;;;;;19.40;4.10;;;;;;;10.80;70.03;100019.28;5025001;28;20037;-66
2023/12/10 08:22:17;;;;;;;25.75;4.53;;;;;;;10.89;69.07;100018.25;5032605;28;20317;-66
2023/12/10 08:24:43;;;;;;;17.55;3.95;;;;;;;10.84;69.67;100028.66;5053182;28;20065;-66
2023/12/10 08:27:09;;;;;;;20.00;3.58;;;;;;;10.91;69.06;100019.06;5057778;28;20042;-66
2023/12/10 08:29:35;;;;;;;16.70;3.50;;;;;;;10.86;69.47;100034.66;5024954;28;20112;-66
2023/12/10 08:32:01;;;;;;;18.58;3.85;;;;;;;10.84;69.62;100035.56;5060062;28;20041;-66
2023/12/10 08:34:27;;;;;;;17.20;3.75;;;;;;;10.83;70.39;100049.41;4991390;28;20037;-66
2023/12/10 08:36:52;;;;;;;17.90;3.40;;;;;;;10.77;70.74;100065.88;5025898;28;20041;-67
2023/12/10 08:39:18;;;;;;;21.20;4.30;;;;;;;10.72;71.57;100096.13;5025387;28;20108;-67
2023/12/10 08:41:43;;;;;;;16.27;4.13;;;;;;;10.76;70.74;100072.78;5025106;28;20064;-66
2023/12/10 08:44:10;;;;;;;17.80;3.67;;;;;;;10.77;70.40;100082.22;5049789;28;20037;-66
2023/12/10 08:46:36;;;;;;;22.13;4.15;;;;;;;10.78;71.17;100083.09;5059535;28;20034;-67
2023/12/10 08:49:02;;;;;;;19.20;3.63;;;;;;;10.78;71.40;100099.44;5043341;28;20056;-67
2023/12/10 08:51:28;;;;;;;21.52;3.25;;;;;;;10.78;70.65;100091.69;5025093;28;20127;-66
2023/12/10 08:53:54;;;;;;;19.52;4.15;;;;;;;10.77;71.13;100102.06;5061323;28;20037;-66
2023/12/10 08:56:20;;;;;;;16.95;3.70;;;;;;;10.79;71.25;100101.16;5022030;28;20099;-67
2023/12/10 08:58:46;;;;;;;21.10;3.90;;;;;;;10.82;71.98;100117.47;5058926;28;20405;-67
2023/12/10 09:01:12;;;;;;;15.85;3.55;;;;;;;10.87;70.32;100090.66;5028468;28;20025;-66
2023/12/10 09:03:42;;;;;;;20.27;4.15;;;;;;;10.92;70.49;100100.91;5021554;28;20104;-67
2023/12/10 09:06:09;;;;;;;20.15;3.10;;;;;;;10.93;69.69;100098.28;5026176;28;20033;-67
2023/12/10 09:08:35;;;;;;;17.23;3.67;;;;;;;10.94;70.40;100104.31;5023139;28;20133;-67
2023/12/10 09:11:04;;;;;;;23.58;4.18;;;;;;;11.01;70.35;100100.72;5027905;28;20132;-66
2023/12/10 09:13:31;;;;;;;15.77;3.25;;;;;;;11.02;70.47;100103.28;5011759;28;20033;-66
2023/12/10 09:15:58;;;;;;;23.83;3.85;;;;;;;11.01;70.62;100118.84;5026404;28;20043;-67
2023/12/10 09:18:25;;;;;;;17.25;3.88;;;;;;;11.07;70.13;100109.19;5028366;28;20040;-66
2023/12/10 09:20:51;;;;;;;13.98;3.67;;;;;;;11.08;70.37;100108.31;5025824;28;20048;-66
2023/12/10 09:23:16;;;;;;;17.00;3.75;;;;;;;11.14;69.68;100112.50;5052704;28;20045;-66
2023/12/10 09:25:42;;;;;;;19.17;4.10;;;;;;;11.16;70.80;100132.28;5023802;28;20068;-67
2023/12/10 09:28:08;;;;;;;22.88;3.63;;;;;;;11.21;70.06;100114.09;5060186;28;20033;-66
2023/12/10 09:30:34;;;;;;;20.60;4.75;;;;;;;11.28;68.82;100085.44;5023837;28;20079;-66
2023/12/10 09:33:00;;;;;;;19.08;3.60;;;;;;;11.39;69.17;100097.31;5024019;28;20034;-66
2023/12/10 09:35:26;;;;;;;19.85;3.45;;;;;;;11.41;68.67;100085.19;5026699;28;20051;-66
2023/12/10 09:37:52;;;;;;;19.00;3.55;;;;;;;11.41;68.33;100083.44;5026938;28;20135;-66
2023/12/10 09:40:18;;;;;;;16.08;3.70;;;;;;;11.45;69.67;100099.78;5025265;28;20529;-67
2023/12/10 09:42:44;;;;;;;17.30;3.30;;;;;;;11.43;69.29;100084.28;5059133;28;20030;-67
2023/12/10 09:45:10;;;;;;;20.17;3.70;;;;;;;11.38;69.46;100103.38;5025348;28;20046;-66
2023/12/10 09:47:36;;;;;;;19.02;3.45;;;;;;;11.42;69.83;100103.28;5025497;28;20102;-66
2023/12/10 09:50:05;;;;;;;14.95;3.80;;;;;;;11.37;70.00;100135.31;5022689;28;20037;-66
2023/12/10 09:52:31;;;;;;;22.30;4.32;;;;;;;11.27;70.16;100130.34;5057828;28;20037;-66
2023/12/10 09:54:58;;;;;;;25.00;3.85;;;;;;;11.24;70.59;100125.22;5026875;28;20044;-66
2023/12/10 09:57:26;;;;;;;19.50;3.83;;;;;;;11.19;70.78;100131.34;5057062;28;20041;-66
2023/12/10 09:59:52;;;;;;;24.25;4.05;;;;;;;11.23;71.03;100141.63;5024508;28;20084;-66
2023/12/10 10:02:18;;;;;;;18.88;4.32;;;;;;;11.25;70.75;100157.09;5024681;28;20034;-67
2023/12/10 10:04:44;;;;;;;19.55;3.42;;;;;;;11.29;70.96;100138.06;5023776;28;20052;-66
2023/12/10 10:07:10;;;;;;;19.98;4.32;;;;;;;11.30;70.97;100150.97;5023248;28;20461;-66
2023/12/10 10:09:39;;;;;;;19.92;3.80;;;;;;;11.34;70.85;100155.19;5009070;28;20520;-66
2023/12/10 10:12:05;;;;;;;18.13;3.58;;;;;;;11.41;70.41;100147.28;5038524;28;20034;-67
2023/12/10 10:14:31;;;;;;;13.68;3.25;;;;;;;11.43;70.93;100159.34;5054714;28;20501;-66
2023/12/10 10:16:57;;;;;;;16.45;3.63;;;;;;;11.38;71.22;100166.31;5036109;28;20100;-66
2023/12/10 10:19:25;;;;;;;17.45;3.38;;;;;;;11.36;70.95;100157.75;5021878;28;20025;-66
2023/12/10 10:21:52;;;;;;;14.13;3.10;;;;;;;11.32;70.98;100167.31;5024549;28;20050;-66
2023/12/10 10:24:17;;;;;;;21.90;3.75;;;;;;;11.35;70.31;100148.28;5022407;28;20477;-66
2023/12/10 10:26:44;;;;;;;24.85;4.00;;;;;;;11.44;69.59;100119.66;5023525;28;20068;-66
2023/12/10 10:29:10;;;;;;;21.20;3.17;;;;;;;11.49;70.17;100128.16;5054972;28;20385;-66
2023/12/10 10:31:35;;;;;;;16.85;3.55;;;;;;;11.57;71.02;100140.94;5031471;28;20084;-65
2023/12/10 10:34:04;;;;;;;17.55;4.70;;;;;;;11.48;70.82;100157.53;5053859;28;20107;-66
2023/12/10 10:36:30;;;;;;;20.92;3.10;;;;;;;11.51;70.12;100134.16;5025570;28;20043;-66
2023/12/10 10:38:57;;;;;;;20.95;4.20;;;;;;;11.63;69.96;100135.63;5018375;28;20048;-65
2023/12/10 10:41:23;;;;;;;13.52;3.40;;;;;;;11.64;70.27;100117.44;5037839;28;20041;-67
2023/12/10 10:43:49;;;;;;;18.25;4.53;;;;;;;11.75;69.69;100109.44;5022572;28;20033;-66
2023/12/10 10:46:19;;;;;;;21.95;4.10;;;;;;;11.81;70.07;100123.06;5025677;28;20075;-66
2023/12/10 10:48:51;;;;;;;16.73;3.75;;;;;;;11.98;69.78;100114.94;5025649;28;20041;-66
2023/12/10 10:51:23;;;;;;;19.60;3.47;;;;;;;11.99;69.94;100105.41;5026026;28;20037;-66
2023/12/10 10:53:51;;;;;;;17.77;4.25;;;;;;;11.91;70.01;100115.94;5025270;28;20044;-66
2023/12/10 10:56:20;;;;;;;17.75;3.90;;;;;;;11.82;69.68;100096.31;5026262;28;20087;-67
2023/12/10 10:58:46;;;;;;;17.90;3.25;;;;;;;11.80;70.26;100117.94;5004387;28;20037;-66
2023/12/10 11:01:41;;;;;;;21.08;3.85;;;;;;;11.84;69.99;100102.28;5029497;28;20038;-69
2023/12/10 11:04:16;;;;;;;24.27;4.40;;;;;;;11.94;70.67;100112.44;5025545;28;20048;-66
2023/12/10 11:06:42;;;;;;;;;;;;;;;12.05;70.47;100116.47;5058997;28;20282;-67
2023/12/10 11:09:08;;;;;;;18.52;3.60;;;;;;;12.21;70.30;100107.44;5025156;28;19940;-66
2023/12/10 11:11:40;;;;;;;15.98;3.28;;;;;;;12.37;68.42;100071.59;5026608;28;20030;-65
2023/12/10 11:14:22;;;;;;;19.05;3.42;;;;;;;12.46;68.67;100069.59;5028359;28;20355;-66
2023/12/10 11:17:04;;;;;;;14.30;3.63;;;;;;;12.54;67.98;100061.63;5058001;28;20403;-67
2023/12/10 11:19:32;;;;;;;14.98;3.40;;;;;;;12.60;68.02;100048.50;5050455;28;20033;-67